sensor_id;sensor_type;location;lat;lon;timestamp;pressure;altitude;pressure_sealevel;temperature;humidity
49055;BME280;35405;52.344;14.530;2023-08-31T05:28:07;100123.47;;;15.08;87.97
49055;BME280;35405;52.344;14.530;2023-08-31T05:30:32;100120.66;;;15.11;88.50
49055;BME280;35405;52.344;14.530;2023-08-31T05:32:59;100127.16;;;15.23;88.28
49055;BME280;35405;52.344;14.530;2023-08-31T05:35:24;100134.78;;;15.29;88.18
49055;BME280;35405;52.344;14.530;2023-08-31T05:37:49;100140.06;;;15.29;88.25
49055;BME280;35405;52.344;14.530;2023-08-31T05:40:15;100145.84;;;15.36;87.93
49055;BME280;35405;52.344;14.530;2023-08-31T05:42:41;100146.38;;;15.44;88.31
49055;BME280;35405;52.344;14.530;2023-08-31T05:45:07;100148.94;;;15.46;87.93
49055;BME280;35405;52.344;14.530;2023-08-31T05:47:33;100146.31;;;15.46;88.00
49055;BME280;35405;52.344;14.530;2023-08-31T05:49:59;100147.94;;;15.48;87.79
49055;BME280;35405;52.344;14.530;2023-08-31T05:52:25;100145.94;;;15.53;88.20
49055;BME280;35405;52.344;14.530;2023-08-31T05:54:50;100155.09;;;15.65;88.31
49055;BME280;35405;52.344;14.530;2023-08-31T05:57:18;100152.13;;;15.71;88.30
49055;BME280;35405;52.344;14.530;2023-08-31T05:59:44;100155.63;;;15.72;87.58
49055;BME280;35405;52.344;14.530;2023-08-31T06:02:09;100156.13;;;15.80;87.81
49055;BME280;35405;52.344;14.530;2023-08-31T06:04:34;100152.47;;;15.82;88.03
49055;BME280;35405;52.344;14.530;2023-08-31T06:07:00;100157.09;;;15.77;87.45
49055;BME280;35405;52.344;14.530;2023-08-31T06:09:25;100161.22;;;15.83;87.84
49055;BME280;35405;52.344;14.530;2023-08-31T06:11:50;100162.38;;;15.77;87.90
49055;BME280;35405;52.344;14.530;2023-08-31T06:14:15;100160.47;;;15.81;87.60
49055;BME280;35405;52.344;14.530;2023-08-31T06:16:40;100159.16;;;15.89;88.04
49055;BME280;35405;52.344;14.530;2023-08-31T06:19:05;100169.53;;;15.92;87.58
49055;BME280;35405;52.344;14.530;2023-08-31T06:21:31;100167.69;;;15.95;87.50
49055;BME280;35405;52.344;14.530;2023-08-31T06:23:56;100168.38;;;15.98;87.64
49055;BME280;35405;52.344;14.530;2023-08-31T06:26:21;100178.19;;;16.13;87.25
49055;BME280;35405;52.344;14.530;2023-08-31T06:28:46;100179.28;;;16.27;87.42
49055;BME280;35405;52.344;14.530;2023-08-31T06:31:11;100184.13;;;16.36;86.44
49055;BME280;35405;52.344;14.530;2023-08-31T06:33:37;100192.47;;;16.27;85.08
49055;BME280;35405;52.344;14.530;2023-08-31T06:36:02;100195.53;;;16.36;86.37
49055;BME280;35405;52.344;14.530;2023-08-31T06:38:27;100192.88;;;16.54;85.78
49055;BME280;35405;52.344;14.530;2023-08-31T06:40:52;100195.56;;;16.71;83.87
49055;BME280;35405;52.344;14.530;2023-08-31T06:43:23;100192.56;;;16.94;85.00
49055;BME280;35405;52.344;14.530;2023-08-31T06:45:49;100189.06;;;16.94;85.07
49055;BME280;35405;52.344;14.530;2023-08-31T06:48:14;100189.81;;;16.96;82.14
49055;BME280;35405;52.344;14.530;2023-08-31T06:50:39;100188.88;;;16.97;82.84
49055;BME280;35405;52.344;14.530;2023-08-31T06:53:04;100185.03;;;16.69;80.98
49055;BME280;35405;52.344;14.530;2023-08-31T06:55:30;100187.75;;;16.68;82.39
49055;BME280;35405;52.344;14.530;2023-08-31T06:57:56;100182.72;;;16.63;83.11
49055;BME280;35405;52.344;14.530;2023-08-31T07:00:22;100198.47;;;16.65;83.16
49055;BME280;35405;52.344;14.530;2023-08-31T07:02:47;100205.84;;;16.58;83.98
49055;BME280;35405;52.344;14.530;2023-08-31T07:05:12;100212.63;;;16.64;84.41
49055;BME280;35405;52.344;14.530;2023-08-31T07:07:38;100217.28;;;16.76;84.58
49055;BME280;35405;52.344;14.530;2023-08-31T07:10:03;100223.97;;;16.83;84.96
49055;BME280;35405;52.344;14.530;2023-08-31T07:12:30;100230.41;;;16.95;84.69
49055;BME280;35405;52.344;14.530;2023-08-31T07:14:55;100228.06;;;16.89;82.96
49055;BME280;35405;52.344;14.530;2023-08-31T07:17:21;100223.41;;;16.94;84.00
49055;BME280;35405;52.344;14.530;2023-08-31T07:19:46;100228.84;;;16.91;83.88
49055;BME280;35405;52.344;14.530;2023-08-31T07:22:11;100225.19;;;16.93;84.66
49055;BME280;35405;52.344;14.530;2023-08-31T07:24:37;100220.22;;;16.87;84.13
49055;BME280;35405;52.344;14.530;2023-08-31T07:27:02;100223.09;;;17.00;84.43
49055;BME280;35405;52.344;14.530;2023-08-31T07:29:28;100225.16;;;17.11;83.33
49055;BME280;35405;52.344;14.530;2023-08-31T07:31:53;100230.13;;;17.17;84.20
49055;BME280;35405;52.344;14.530;2023-08-31T07:34:18;100218.38;;;17.22;83.95
49055;BME280;35405;52.344;14.530;2023-08-31T07:36:43;100229.06;;;17.37;83.68
49055;BME280;35405;52.344;14.530;2023-08-31T07:39:08;100224.38;;;17.42;83.10
49055;BME280;35405;52.344;14.530;2023-08-31T07:41:34;100230.09;;;17.50;83.11
49055;BME280;35405;52.344;14.530;2023-08-31T07:43:59;100223.44;;;17.58;82.90
49055;BME280;35405;52.344;14.530;2023-08-31T07:46:24;100224.00;;;17.81;83.35
49055;BME280;35405;52.344;14.530;2023-08-31T07:48:49;100225.31;;;18.20;83.50
49055;BME280;35405;52.344;14.530;2023-08-31T07:51:15;100217.88;;;18.56;82.06
49055;BME280;35405;52.344;14.530;2023-08-31T07:53:41;100218.03;;;18.69;78.16
49055;BME280;35405;52.344;14.530;2023-08-31T07:56:06;100224.94;;;18.72;78.18
49055;BME280;35405;52.344;14.530;2023-08-31T07:58:31;100217.56;;;18.77;76.88
49055;BME280;35405;52.344;14.530;2023-08-31T08:00:56;100226.75;;;18.85;75.06
49055;BME280;35405;52.344;14.530;2023-08-31T08:03:22;100223.19;;;18.56;74.81
49055;BME280;35405;52.344;14.530;2023-08-31T08:05:47;100223.53;;;18.50;74.75
49055;BME280;35405;52.344;14.530;2023-08-31T08:08:12;100230.19;;;18.27;74.45
49055;BME280;35405;52.344;14.530;2023-08-31T08:10:37;100224.81;;;18.13;74.10
49055;BME280;35405;52.344;14.530;2023-08-31T08:13:02;100232.00;;;17.95;73.66
49055;BME280;35405;52.344;14.530;2023-08-31T08:15:28;100232.94;;;18.10;74.19
49055;BME280;35405;52.344;14.530;2023-08-31T08:17:53;100239.56;;;18.17;73.43
49055;BME280;35405;52.344;14.530;2023-08-31T08:20:18;100238.03;;;18.29;72.78
49055;BME280;35405;52.344;14.530;2023-08-31T08:22:44;100246.22;;;18.24;72.41
49055;BME280;35405;52.344;14.530;2023-08-31T08:25:09;100262.41;;;18.20;72.50
49055;BME280;35405;52.344;14.530;2023-08-31T08:27:35;100247.28;;;17.74;70.32
49055;BME280;35405;52.344;14.530;2023-08-31T08:30:01;100261.72;;;17.36;72.74
49055;BME280;35405;52.344;14.530;2023-08-31T08:32:27;100262.19;;;17.26;73.31
49055;BME280;35405;52.344;14.530;2023-08-31T08:34:52;100263.09;;;17.27;73.19
49055;BME280;35405;52.344;14.530;2023-08-31T08:37:17;100268.97;;;17.32;73.75
49055;BME280;35405;52.344;14.530;2023-08-31T08:39:42;100273.59;;;17.11;73.09
49055;BME280;35405;52.344;14.530;2023-08-31T08:42:08;100272.59;;;16.96;73.40
49055;BME280;35405;52.344;14.530;2023-08-31T08:44:35;100279.13;;;16.89;73.44
49055;BME280;35405;52.344;14.530;2023-08-31T08:47:00;100279.53;;;16.99;74.07
49055;BME280;35405;52.344;14.530;2023-08-31T08:49:29;100273.19;;;17.19;73.54
49055;BME280;35405;52.344;14.530;2023-08-31T08:51:55;100276.56;;;17.38;73.61
49055;BME280;35405;52.344;14.530;2023-08-31T08:54:22;100283.47;;;17.74;73.38
49055;BME280;35405;52.344;14.530;2023-08-31T08:56:47;100275.50;;;17.91;73.21
49055;BME280;35405;52.344;14.530;2023-08-31T08:59:12;100274.09;;;18.16;73.28
49055;BME280;35405;52.344;14.530;2023-08-31T09:01:39;100275.53;;;18.21;71.60
49055;BME280;35405;52.344;14.530;2023-08-31T09:04:04;100278.44;;;18.32;71.88
49055;BME280;35405;52.344;14.530;2023-08-31T09:06:29;100273.16;;;18.32;71.63
49055;BME280;35405;52.344;14.530;2023-08-31T09:08:55;100277.38;;;18.51;71.71
49055;BME280;35405;52.344;14.530;2023-08-31T09:11:23;100283.56;;;18.65;71.05
49055;BME280;35405;52.344;14.530;2023-08-31T09:13:49;100274.88;;;18.63;70.10
49055;BME280;35405;52.344;14.530;2023-08-31T09:16:24;100280.25;;;18.62;70.06
49055;BME280;35405;52.344;14.530;2023-08-31T09:18:51;100283.75;;;18.62;70.11
49055;BME280;35405;52.344;14.530;2023-08-31T09:21:17;100290.63;;;18.51;71.43
49055;BME280;35405;52.344;14.530;2023-08-31T09:23:42;100284.66;;;18.47;71.67
49055;BME280;35405;52.344;14.530;2023-08-31T09:26:11;100291.41;;;18.37;71.09
49055;BME280;35405;52.344;14.530;2023-08-31T09:28:40;100292.81;;;18.74;71.06
49055;BME280;35405;52.344;14.530;2023-08-31T09:31:06;100286.44;;;19.07;70.77
49055;BME280;35405;52.344;14.530;2023-08-31T09:33:34;100285.53;;;19.36;69.65
49055;BME280;35405;52.344;14.530;2023-08-31T09:36:01;100292.00;;;19.75;69.47
49055;BME280;35405;52.344;14.530;2023-08-31T09:38:26;100292.25;;;19.85;68.83
49055;BME280;35405;52.344;14.530;2023-08-31T09:40:51;100285.25;;;19.41;66.03
49055;BME280;35405;52.344;14.530;2023-08-31T09:43:20;100284.97;;;19.17;66.16
49055;BME280;35405;52.344;14.530;2023-08-31T09:45:47;100287.63;;;19.31;66.61
49055;BME280;35405;52.344;14.530;2023-08-31T09:48:13;100269.50;;;19.38;66.04
49055;BME280;35405;52.344;14.530;2023-08-31T09:50:39;100276.72;;;19.21;61.65
49055;BME280;35405;52.344;14.530;2023-08-31T09:53:05;100277.66;;;19.06;62.67
49055;BME280;35405;52.344;14.530;2023-08-31T09:55:32;100277.38;;;19.11;63.40
49055;BME280;35405;52.344;14.530;2023-08-31T09:57:58;100280.56;;;19.02;63.13
49055;BME280;35405;52.344;14.530;2023-08-31T10:00:27;100274.22;;;18.90;64.67
49055;BME280;35405;52.344;14.530;2023-08-31T10:02:54;100282.31;;;19.17;65.78
49055;BME280;35405;52.344;14.530;2023-08-31T10:05:21;100277.28;;;19.12;64.21
49055;BME280;35405;52.344;14.530;2023-08-31T10:07:46;100274.25;;;19.04;65.04
49055;BME280;35405;52.344;14.530;2023-08-31T10:10:12;100282.19;;;19.04;65.20
49055;BME280;35405;52.344;14.530;2023-08-31T10:12:38;100281.22;;;18.91;65.83
49055;BME280;35405;52.344;14.530;2023-08-31T10:15:04;100292.78;;;18.90;65.72
49055;BME280;35405;52.344;14.530;2023-08-31T10:17:29;100289.03;;;18.78;65.79
49055;BME280;35405;52.344;14.530;2023-08-31T10:19:56;100281.97;;;18.93;65.60
49055;BME280;35405;52.344;14.530;2023-08-31T10:22:21;100281.00;;;19.24;64.92
49055;BME280;35405;52.344;14.530;2023-08-31T10:24:56;100286.75;;;19.31;63.79
49055;BME280;35405;52.344;14.530;2023-08-31T10:27:21;100285.75;;;19.62;61.95
49055;BME280;35405;52.344;14.530;2023-08-31T10:29:47;100281.56;;;19.72;61.45
49055;BME280;35405;52.344;14.530;2023-08-31T10:32:16;100276.56;;;19.67;60.62
49055;BME280;35405;52.344;14.530;2023-08-31T10:34:42;100275.56;;;19.83;60.64
49055;BME280;35405;52.344;14.530;2023-08-31T10:37:21;100280.66;;;20.00;60.83
49055;BME280;35405;52.344;14.530;2023-08-31T10:39:47;100267.28;;;20.28;60.38
49055;BME280;35405;52.344;14.530;2023-08-31T10:42:12;100266.13;;;20.06;57.46
49055;BME280;35405;52.344;14.530;2023-08-31T10:44:37;100275.50;;;20.11;57.45
49055;BME280;35405;52.344;14.530;2023-08-31T10:47:07;100275.91;;;20.32;58.18
49055;BME280;35405;52.344;14.530;2023-08-31T10:49:32;100269.94;;;20.28;54.58
49055;BME280;35405;52.344;14.530;2023-08-31T10:52:17;100281.78;;;20.10;56.18
49055;BME280;35405;52.344;14.530;2023-08-31T10:54:42;100273.09;;;19.80;56.45
49055;BME280;35405;52.344;14.530;2023-08-31T10:57:08;100282.97;;;19.49;56.49
49055;BME280;35405;52.344;14.530;2023-08-31T11:02:10;100291.59;;;19.24;56.87
49055;BME280;35405;52.344;14.530;2023-08-31T11:04:52;100289.00;;;19.23;57.99
49055;BME280;35405;52.344;14.530;2023-08-31T11:07:18;100296.81;;;19.26;56.35
49055;BME280;35405;52.344;14.530;2023-08-31T11:09:44;100289.03;;;19.51;57.25
49055;BME280;35405;52.344;14.530;2023-08-31T11:12:10;100292.84;;;19.75;58.32
49055;BME280;35405;52.344;14.530;2023-08-31T11:14:35;100281.53;;;19.86;57.94
49055;BME280;35405;52.344;14.530;2023-08-31T11:17:00;100285.03;;;19.87;57.62
49055;BME280;35405;52.344;14.530;2023-08-31T11:19:26;100285.31;;;19.96;58.50
49055;BME280;35405;52.344;14.530;2023-08-31T11:21:51;100296.97;;;19.94;57.70
49055;BME280;35405;52.344;14.530;2023-08-31T11:24:17;100296.06;;;19.95;57.03
49055;BME280;35405;52.344;14.530;2023-08-31T11:26:42;100299.09;;;19.89;56.82
49055;BME280;35405;52.344;14.530;2023-08-31T11:29:08;100292.72;;;19.91;57.42
49055;BME280;35405;52.344;14.530;2023-08-31T11:31:37;100299.13;;;20.16;56.50
49055;BME280;35405;52.344;14.530;2023-08-31T11:34:04;100295.72;;;20.41;55.95
49055;BME280;35405;52.344;14.530;2023-08-31T11:36:29;100296.78;;;20.38;54.60
49055;BME280;35405;52.344;14.530;2023-08-31T11:38:56;100291.19;;;20.28;55.68
49055;BME280;35405;52.344;14.530;2023-08-31T11:41:21;100291.97;;;20.30;54.17
49055;BME280;35405;52.344;14.530;2023-08-31T11:43:46;100291.28;;;20.00;55.60
49055;BME280;35405;52.344;14.530;2023-08-31T11:46:12;100294.03;;;19.98;57.75
49055;BME280;35405;52.344;14.530;2023-08-31T11:48:37;100297.75;;;19.96;57.56
49055;BME280;35405;52.344;14.530;2023-08-31T11:51:03;100303.59;;;20.01;57.62
49055;BME280;35405;52.344;14.530;2023-08-31T11:53:31;100302.94;;;20.12;58.26
49055;BME280;35405;52.344;14.530;2023-08-31T11:55:56;100305.91;;;19.93;56.39
49055;BME280;35405;52.344;14.530;2023-08-31T11:58:21;100302.84;;;19.99;57.27
49055;BME280;35405;52.344;14.530;2023-08-31T12:00:56;100292.41;;;20.10;57.05
49055;BME280;35405;52.344;14.530;2023-08-31T12:03:21;100294.34;;;20.21;57.86
49055;BME280;35405;52.344;14.530;2023-08-31T12:05:47;100295.34;;;20.06;56.15
49055;BME280;35405;52.344;14.530;2023-08-31T12:08:13;100288.00;;;19.82;57.87
49055;BME280;35405;52.344;14.530;2023-08-31T12:10:42;100295.38;;;19.48;57.00
49055;BME280;35405;52.344;14.530;2023-08-31T12:13:08;100291.69;;;19.51;58.05
49055;BME280;35405;52.344;14.530;2023-08-31T12:15:33;100284.97;;;19.45;57.77
49055;BME280;35405;52.344;14.530;2023-08-31T12:18:02;100289.88;;;19.37;58.76
49055;BME280;35405;52.344;14.530;2023-08-31T12:20:31;100294.06;;;19.41;58.11
49055;BME280;35405;52.344;14.530;2023-08-31T12:22:57;100297.00;;;19.51;58.74
49055;BME280;35405;52.344;14.530;2023-08-31T12:25:22;100291.16;;;19.74;59.16
49055;BME280;35405;52.344;14.530;2023-08-31T12:27:48;100302.25;;;19.81;59.12
49055;BME280;35405;52.344;14.530;2023-08-31T12:30:14;100298.25;;;19.88;58.11
49055;BME280;35405;52.344;14.530;2023-08-31T12:32:40;100306.81;;;20.06;57.07
49055;BME280;35405;52.344;14.530;2023-08-31T12:35:05;100293.66;;;20.46;56.13
49055;BME280;35405;52.344;14.530;2023-08-31T12:37:31;100293.84;;;20.82;52.98
49055;BME280;35405;52.344;14.530;2023-08-31T12:39:56;100296.97;;;21.02;52.63
49055;BME280;35405;52.344;14.530;2023-08-31T12:42:21;100298.88;;;21.25;52.42
49055;BME280;35405;52.344;14.530;2023-08-31T12:44:47;100292.50;;;21.41;52.90
49055;BME280;35405;52.344;14.530;2023-08-31T12:47:12;100291.25;;;21.33;50.39
49055;BME280;35405;52.344;14.530;2023-08-31T12:49:37;100294.72;;;21.08;50.73
49055;BME280;35405;52.344;14.530;2023-08-31T12:52:02;100301.00;;;20.95;52.37
49055;BME280;35405;52.344;14.530;2023-08-31T12:54:27;100299.81;;;20.99;53.38
49055;BME280;35405;52.344;14.530;2023-08-31T12:56:53;100306.50;;;20.92;50.44
49055;BME280;35405;52.344;14.530;2023-08-31T12:59:18;100305.13;;;20.86;52.31
49055;BME280;35405;52.344;14.530;2023-08-31T13:01:43;100312.81;;;21.03;51.31
49055;BME280;35405;52.344;14.530;2023-08-31T13:04:08;100306.16;;;21.36;52.10
49055;BME280;35405;52.344;14.530;2023-08-31T13:06:33;100303.47;;;21.49;50.36
49055;BME280;35405;52.344;14.530;2023-08-31T13:08:59;100298.56;;;21.55;47.71
49055;BME280;35405;52.344;14.530;2023-08-31T13:11:24;100315.19;;;21.46;49.34
49055;BME280;35405;52.344;14.530;2023-08-31T13:13:49;100312.00;;;21.28;49.53
49055;BME280;35405;52.344;14.530;2023-08-31T13:16:16;100314.09;;;21.23;49.01
49055;BME280;35405;52.344;14.530;2023-08-31T13:18:42;100312.97;;;21.65;50.00
49055;BME280;35405;52.344;14.530;2023-08-31T13:21:07;100322.81;;;21.89;47.06
49055;BME280;35405;52.344;14.530;2023-08-31T13:23:32;100321.69;;;21.67;47.15
49055;BME280;35405;52.344;14.530;2023-08-31T13:25:57;100318.81;;;21.32;48.24
49055;BME280;35405;52.344;14.530;2023-08-31T13:28:23;100313.06;;;21.38;47.67
49055;BME280;35405;52.344;14.530;2023-08-31T13:30:48;100313.25;;;21.61;48.33
49055;BME280;35405;52.344;14.530;2023-08-31T13:33:13;100304.66;;;21.57;49.71
49055;BME280;35405;52.344;14.530;2023-08-31T13:35:38;100306.22;;;21.73;49.23
49055;BME280;35405;52.344;14.530;2023-08-31T13:38:04;100304.19;;;21.63;50.28
49055;BME280;35405;52.344;14.530;2023-08-31T13:40:29;100311.25;;;21.52;50.46
49055;BME280;35405;52.344;14.530;2023-08-31T13:42:55;100312.75;;;21.30;48.94
49055;BME280;35405;52.344;14.530;2023-08-31T13:45:26;100302.06;;;21.18;50.40
49055;BME280;35405;52.344;14.530;2023-08-31T13:47:51;100314.19;;;20.96;51.80
49055;BME280;35405;52.344;14.530;2023-08-31T13:50:16;100313.34;;;20.96;51.94
49055;BME280;35405;52.344;14.530;2023-08-31T13:52:42;100314.94;;;21.11;51.99
49055;BME280;35405;52.344;14.530;2023-08-31T13:55:07;100326.59;;;21.35;51.59
49055;BME280;35405;52.344;14.530;2023-08-31T13:57:32;100314.47;;;21.57;51.92
49055;BME280;35405;52.344;14.530;2023-08-31T13:59:58;100318.69;;;21.72;52.75
49055;BME280;35405;52.344;14.530;2023-08-31T14:02:23;100330.31;;;21.58;52.82
49055;BME280;35405;52.344;14.530;2023-08-31T14:04:48;100331.38;;;21.30;52.07
49055;BME280;35405;52.344;14.530;2023-08-31T14:07:13;100339.44;;;21.16;52.53
49055;BME280;35405;52.344;14.530;2023-08-31T14:09:38;100333.59;;;21.24;52.08
49055;BME280;35405;52.344;14.530;2023-08-31T14:12:04;100339.16;;;21.46;52.83
49055;BME280;35405;52.344;14.530;2023-08-31T14:14:29;100325.06;;;21.70;52.04
49055;BME280;35405;52.344;14.530;2023-08-31T14:16:54;100336.50;;;21.59;50.88
49055;BME280;35405;52.344;14.530;2023-08-31T14:19:20;100331.22;;;21.06;50.91
49055;BME280;35405;52.344;14.530;2023-08-31T14:21:47;100333.50;;;20.73;53.01
49055;BME280;35405;52.344;14.530;2023-08-31T14:24:12;100330.97;;;20.44;53.67
49055;BME280;35405;52.344;14.530;2023-08-31T14:26:37;100326.50;;;20.45;54.05
49055;BME280;35405;52.344;14.530;2023-08-31T14:29:02;100322.19;;;20.42;53.98
49055;BME280;35405;52.344;14.530;2023-08-31T14:31:27;100331.53;;;20.21;51.92
49055;BME280;35405;52.344;14.530;2023-08-31T14:33:53;100334.41;;;20.18;53.41
49055;BME280;35405;52.344;14.530;2023-08-31T14:36:20;100332.84;;;20.28;54.11
49055;BME280;35405;52.344;14.530;2023-08-31T14:38:45;100337.00;;;20.46;54.67
49055;BME280;35405;52.344;14.530;2023-08-31T14:41:11;100333.41;;;20.47;54.22
49055;BME280;35405;52.344;14.530;2023-08-31T14:43:36;100332.03;;;20.54;53.57
49055;BME280;35405;52.344;14.530;2023-08-31T14:46:01;100329.16;;;20.57;53.58
49055;BME280;35405;52.344;14.530;2023-08-31T14:48:27;100337.59;;;20.37;53.05
49055;BME280;35405;52.344;14.530;2023-08-31T14:50:53;100337.72;;;20.21;53.80
49055;BME280;35405;52.344;14.530;2023-08-31T14:53:18;100355.94;;;20.13;53.42
49055;BME280;35405;52.344;14.530;2023-08-31T14:55:50;100356.53;;;20.04;53.63
49055;BME280;35405;52.344;14.530;2023-08-31T14:58:15;100354.84;;;19.74;51.68
49055;BME280;35405;52.344;14.530;2023-08-31T15:00:41;100360.50;;;19.40;49.60
49055;BME280;35405;52.344;14.530;2023-08-31T15:03:06;100371.53;;;19.18;50.27
49055;BME280;35405;52.344;14.530;2023-08-31T15:05:31;100376.47;;;18.94;50.80
49055;BME280;35405;52.344;14.530;2023-08-31T15:07:56;100374.16;;;18.88;51.91
49055;BME280;35405;52.344;14.530;2023-08-31T15:10:21;100382.22;;;18.86;52.12
49055;BME280;35405;52.344;14.530;2023-08-31T15:12:47;100382.81;;;18.91;51.38
49055;BME280;35405;52.344;14.530;2023-08-31T15:15:12;100380.47;;;19.01;51.77
49055;BME280;35405;52.344;14.530;2023-08-31T15:17:37;100387.47;;;19.02;52.16
49055;BME280;35405;52.344;14.530;2023-08-31T15:20:02;100399.63;;;19.06;52.13
49055;BME280;35405;52.344;14.530;2023-08-31T15:22:28;100400.19;;;18.81;51.34
49055;BME280;35405;52.344;14.530;2023-08-31T15:24:53;100392.16;;;18.67;52.68
49055;BME280;35405;52.344;14.530;2023-08-31T15:27:19;100415.38;;;18.46;53.14
49055;BME280;35405;52.344;14.530;2023-08-31T15:29:44;100417.75;;;18.03;53.43
49055;BME280;35405;52.344;14.530;2023-08-31T15:32:10;100431.97;;;17.68;56.06
49055;BME280;35405;52.344;14.530;2023-08-31T15:34:35;100415.41;;;16.95;59.75
49055;BME280;35405;52.344;14.530;2023-08-31T15:37:00;100415.03;;;16.47;63.03
49055;BME280;35405;52.344;14.530;2023-08-31T15:39:26;100419.03;;;16.18;63.84
49055;BME280;35405;52.344;14.530;2023-08-31T15:41:51;100433.00;;;16.02;65.43
49055;BME280;35405;52.344;14.530;2023-08-31T15:44:16;100427.09;;;16.15;66.28
49055;BME280;35405;52.344;14.530;2023-08-31T15:46:41;100426.97;;;16.37;66.33
49055;BME280;35405;52.344;14.530;2023-08-31T15:49:06;100426.16;;;16.54;66.39
49055;BME280;35405;52.344;14.530;2023-08-31T15:51:31;100419.94;;;16.74;66.32
49055;BME280;35405;52.344;14.530;2023-08-31T15:53:58;100414.75;;;16.90;66.26
49055;BME280;35405;52.344;14.530;2023-08-31T15:56:28;100429.94;;;17.03;65.69
49055;BME280;35405;52.344;14.530;2023-08-31T15:58:53;100415.41;;;17.12;65.35
49055;BME280;35405;52.344;14.530;2023-08-31T16:01:18;100418.94;;;17.13;64.33
49055;BME280;35405;52.344;14.530;2023-08-31T16:03:43;100419.44;;;17.02;62.23
49055;BME280;35405;52.344;14.530;2023-08-31T16:06:09;100420.19;;;17.06;63.96
49055;BME280;35405;52.344;14.530;2023-08-31T16:08:36;100410.38;;;17.08;63.53
49055;BME280;35405;52.344;14.530;2023-08-31T16:11:02;100413.09;;;17.23;63.07
49055;BME280;35405;52.344;14.530;2023-08-31T16:13:28;100416.44;;;17.44;63.14
49055;BME280;35405;52.344;14.530;2023-08-31T16:15:53;100411.38;;;17.57;63.10
49055;BME280;35405;52.344;14.530;2023-08-31T16:18:18;100413.38;;;17.69;62.59
49055;BME280;35405;52.344;14.530;2023-08-31T16:20:44;100416.34;;;17.80;62.36
49055;BME280;35405;52.344;14.530;2023-08-31T16:23:09;100415.06;;;17.88;61.86
49055;BME280;35405;52.344;14.530;2023-08-31T16:25:34;100411.59;;;18.03;62.03
49055;BME280;35405;52.344;14.530;2023-08-31T16:28:00;100416.84;;;18.04;62.09
49055;BME280;35405;52.344;14.530;2023-08-31T16:30:25;100419.47;;;18.04;62.31
49055;BME280;35405;52.344;14.530;2023-08-31T16:32:51;100408.38;;;18.14;61.44
49055;BME280;35405;52.344;14.530;2023-08-31T16:35:16;100403.75;;;18.17;61.76
49055;BME280;35405;52.344;14.530;2023-08-31T16:37:41;100411.78;;;18.16;61.84
49055;BME280;35405;52.344;14.530;2023-08-31T16:40:10;100411.56;;;17.87;61.79
49055;BME280;35405;52.344;14.530;2023-08-31T16:42:37;100412.31;;;17.56;61.35
49055;BME280;35405;52.344;14.530;2023-08-31T16:45:02;100411.31;;;17.41;61.06
49055;BME280;35405;52.344;14.530;2023-08-31T16:47:27;100415.91;;;17.20;61.78
49055;BME280;35405;52.344;14.530;2023-08-31T16:49:52;100405.38;;;17.01;62.55
49055;BME280;35405;52.344;14.530;2023-08-31T16:52:21;100407.94;;;16.86;61.95
49055;BME280;35405;52.344;14.530;2023-08-31T16:54:46;100413.72;;;16.75;62.02
49055;BME280;35405;52.344;14.530;2023-08-31T16:57:13;100404.44;;;16.66;62.07
49055;BME280;35405;52.344;14.530;2023-08-31T16:59:38;100414.44;;;16.60;62.32
49055;BME280;35405;52.344;14.530;2023-08-31T17:02:03;100409.66;;;16.49;62.44
49055;BME280;35405;52.344;14.530;2023-08-31T17:04:29;100407.38;;;16.41;62.78
49055;BME280;35405;52.344;14.530;2023-08-31T17:06:54;100410.34;;;16.35;63.23
49055;BME280;35405;52.344;14.530;2023-08-31T17:09:19;100411.31;;;16.33;63.82
49055;BME280;35405;52.344;14.530;2023-08-31T17:11:44;100408.91;;;16.28;63.87
49055;BME280;35405;52.344;14.530;2023-08-31T17:14:09;100408.09;;;16.26;64.14
49055;BME280;35405;52.344;14.530;2023-08-31T17:16:35;100404.78;;;16.23;64.23
49055;BME280;35405;52.344;14.530;2023-08-31T17:19:00;100404.31;;;16.13;64.84
49055;BME280;35405;52.344;14.530;2023-08-31T17:21:26;100394.69;;;16.12;65.25
49055;BME280;35405;52.344;14.530;2023-08-31T17:23:51;100402.13;;;16.04;65.77
49055;BME280;35405;52.344;14.530;2023-08-31T17:26:23;100413.03;;;15.96;66.25
49055;BME280;35405;52.344;14.530;2023-08-31T17:28:48;100394.91;;;15.88;66.59
49055;BME280;35405;52.344;14.530;2023-08-31T17:31:14;100403.59;;;15.72;66.90
49055;BME280;35405;52.344;14.530;2023-08-31T17:33:39;100400.28;;;15.67;67.11
49055;BME280;35405;52.344;14.530;2023-08-31T17:36:04;100397.22;;;15.55;67.43
49055;BME280;35405;52.344;14.530;2023-08-31T17:38:30;100405.34;;;15.51;68.22
49055;BME280;35405;52.344;14.530;2023-08-31T17:40:57;100409.03;;;15.47;68.43
49055;BME280;35405;52.344;14.530;2023-08-31T17:43:22;100410.91;;;15.43;68.88
49055;BME280;35405;52.344;14.530;2023-08-31T17:45:47;100406.97;;;15.33;69.12
49055;BME280;35405;52.344;14.530;2023-08-31T17:48:12;100410.72;;;15.27;69.31
49055;BME280;35405;52.344;14.530;2023-08-31T17:50:38;100414.44;;;15.23;69.95
49055;BME280;35405;52.344;14.530;2023-08-31T17:53:03;100412.75;;;15.21;70.11
49055;BME280;35405;52.344;14.530;2023-08-31T17:55:28;100414.69;;;15.17;70.73
49055;BME280;35405;52.344;14.530;2023-08-31T17:57:54;100412.13;;;15.16;70.98
49055;BME280;35405;52.344;14.530;2023-08-31T18:00:19;100416.72;;;15.10;71.20
49055;BME280;35405;52.344;14.530;2023-08-31T18:02:44;100416.66;;;15.12;71.29